Aviation Digital Data Service (ADDS)

Output produced by METARs form (1848 UTC 18 June 2019)
found at http://www.aviationweather.gov/metar/data/
 
METAR text: SPJL 181800Z 35002KT CAVOK 16/M04 Q1037 RMK PP000
Conditions at: SPJL (JULIACA , PE) observed 1800 UTC 18 June 2019
Temperature: 16.0°C (61°F)
Dewpoint: -4.0°C (25°F) [RH = 25%]
Pressure (altimeter): 30.62 inches Hg (1037.0 mb)
Winds: from the N (350 degrees) at 2 MPH (2 knots; 1.0 m/s)
Visibility: 6 or more miles (10+ km)
Ceiling: ceiling and visibility are OK
Clouds: unknown
Weather: no significant weather observed at this time

METAR text: SPJL 181700Z 04006KT CAVOK 16/M04 Q1038 RMK PP000
Conditions at: SPJL (JULIACA , PE) observed 1700 UTC 18 June 2019
Temperature: 16.0°C (61°F)
Dewpoint: -4.0°C (25°F) [RH = 25%]
Pressure (altimeter): 30.65 inches Hg (1038.0 mb)
Winds: from the NE (40 degrees) at 7 MPH (6 knots; 3.1 m/s)
Visibility: 6 or more miles (10+ km)
Ceiling: ceiling and visibility are OK
Clouds: unknown
Weather: no significant weather observed at this time

METAR text: SPJL 181600Z 10003KT CAVOK 13/M03 Q1039 RMK PP000
Conditions at: SPJL (JULIACA , PE) observed 1600 UTC 18 June 2019
Temperature: 13.0°C (55°F)
Dewpoint: -3.0°C (27°F) [RH = 33%]
Pressure (altimeter): 30.68 inches Hg (1039.0 mb)
Winds: from the E (100 degrees) at 3 MPH (3 knots; 1.5 m/s)
Visibility: 6 or more miles (10+ km)
Ceiling: ceiling and visibility are OK
Clouds: unknown
Weather: no significant weather observed at this time

METAR text: SPJL 181500Z VRB01KT CAVOK 12/M02 Q1041 RMK PP000
Conditions at: SPJL (JULIACA , PE) observed 1500 UTC 18 June 2019
Temperature: 12.0°C (54°F)
Dewpoint: -2.0°C (28°F) [RH = 38%]
Pressure (altimeter): 30.74 inches Hg (1041.0 mb)
Winds: variable direction winds at 1 MPH (1 knots; 0.5 m/s)
Visibility: 6 or more miles (10+ km)
Ceiling: ceiling and visibility are OK
Clouds: unknown
Weather: no significant weather observed at this time

METAR text: SPJL 181400Z VRB02KT CAVOK 09/M04 Q1041 RMK PP000
Conditions at: SPJL (JULIACA , PE) observed 1400 UTC 18 June 2019
Temperature: 9.0°C (48°F)
Dewpoint: -4.0°C (25°F) [RH = 40%]
Pressure (altimeter): 30.74 inches Hg (1041.0 mb)
Winds: variable direction winds at 2 MPH (2 knots; 1.0 m/s)
Visibility: 6 or more miles (10+ km)
Ceiling: ceiling and visibility are OK
Clouds: unknown
Weather: no significant weather observed at this time

METAR text: SPJL 181300Z 30003KT CAVOK 04/M04 Q1041 RMK PP000
Conditions at: SPJL (JULIACA , PE) observed 1300 UTC 18 June 2019
Temperature: 4.0°C (39°F)
Dewpoint: -4.0°C (25°F) [RH = 56%]
Pressure (altimeter): 30.74 inches Hg (1041.0 mb)
Winds: from the WNW (300 degrees) at 3 MPH (3 knots; 1.5 m/s)
Visibility: 6 or more miles (10+ km)
Ceiling: ceiling and visibility are OK
Clouds: unknown
Weather: no significant weather observed at this time

METAR text: SPJL 181200Z 32003KT 9999 SCT015 M02/M05 Q1040 RMK TN-3.6 PP000
Conditions at: SPJL (JULIACA , PE) observed 1200 UTC 18 June 2019
Temperature: -2.0°C (28°F)
Dewpoint: -5.0°C (23°F) [RH = 80%]
Pressure (altimeter): 30.71 inches Hg (1040.0 mb)
Winds: from the NW (320 degrees) at 3 MPH (3 knots; 1.5 m/s)
Visibility: 6 or more miles (10+ km)
Ceiling: at least 12,000 feet AGL
Clouds: scattered clouds at 1500 feet AGL
Weather: no significant weather observed at this time

METAR text: SPJL 181100Z VRB01KT 9999 SCT015 M03/M05 Q1039 RMK PP000
Conditions at: SPJL (JULIACA , PE) observed 1100 UTC 18 June 2019
Temperature: -3.0°C (27°F)
Dewpoint: -5.0°C (23°F) [RH = 86%]
Pressure (altimeter): 30.68 inches Hg (1039.0 mb)
Winds: variable direction winds at 1 MPH (1 knots; 0.5 m/s)
Visibility: 6 or more miles (10+ km)
Ceiling: at least 12,000 feet AGL
Clouds: scattered clouds at 1500 feet AGL
Weather: no significant weather observed at this time

METAR text: SPJL 180100Z 23003KT 9999 SCT020 09/M03 Q1037 RMK PP000
Conditions at: SPJL (JULIACA , PE) observed 0100 UTC 18 June 2019
Temperature: 9.0°C (48°F)
Dewpoint: -3.0°C (27°F) [RH = 43%]
Pressure (altimeter): 30.62 inches Hg (1037.0 mb)
Winds: from the SW (230 degrees) at 3 MPH (3 knots; 1.5 m/s)
Visibility: 6 or more miles (10+ km)
Ceiling: at least 12,000 feet AGL
Clouds: scattered clouds at 2000 feet AGL
Weather: no significant weather observed at this time

METAR text: SPJL 180000Z 28003KT 9999 SCT020 09/M03 Q1036 RMK PP000
Conditions at: SPJL (JULIACA , PE) observed 0000 UTC 18 June 2019
Temperature: 9.0°C (48°F)
Dewpoint: -3.0°C (27°F) [RH = 43%]
Pressure (altimeter): 30.59 inches Hg (1036.0 mb)
Winds: from the W (280 degrees) at 3 MPH (3 knots; 1.5 m/s)
Visibility: 6 or more miles (10+ km)
Ceiling: at least 12,000 feet AGL
Clouds: scattered clouds at 2000 feet AGL
Weather: no significant weather observed at this time

METAR text: SPJL 172300Z 29004KT 9999 SCT020 12/M03 Q1035 RMK PP000
Conditions at: SPJL (JULIACA , PE) observed 2300 UTC 17 June 2019
Temperature: 12.0°C (54°F)
Dewpoint: -3.0°C (27°F) [RH = 35%]
Pressure (altimeter): 30.56 inches Hg (1035.0 mb)
Winds: from the WNW (290 degrees) at 5 MPH (4 knots; 2.1 m/s)
Visibility: 6 or more miles (10+ km)
Ceiling: at least 12,000 feet AGL
Clouds: scattered clouds at 2000 feet AGL
Weather: no significant weather observed at this time

METAR text: SPJL 172200Z 30008KT 9999 SCT020 14/M06 Q1034 RMK TX17.6 PP000
Conditions at: SPJL (JULIACA , PE) observed 2200 UTC 17 June 2019
Temperature: 14.0°C (57°F)
Dewpoint: -6.0°C (21°F) [RH = 24%]
Pressure (altimeter): 30.53 inches Hg (1034.0 mb)
Winds: from the WNW (300 degrees) at 9 MPH (8 knots; 4.1 m/s)
Visibility: 6 or more miles (10+ km)
Ceiling: at least 12,000 feet AGL
Clouds: scattered clouds at 2000 feet AGL
Weather: no significant weather observed at this time

METAR text: SPJL 172100Z 29007KT 9999 SCT020 15/M04 Q1034 RMK PP000
Conditions at: SPJL (JULIACA , PE) observed 2100 UTC 17 June 2019
Temperature: 15.0°C (59°F)
Dewpoint: -4.0°C (25°F) [RH = 27%]
Pressure (altimeter): 30.53 inches Hg (1034.0 mb)
Winds: from the WNW (290 degrees) at 8 MPH (7 knots; 3.6 m/s)
Visibility: 6 or more miles (10+ km)
Ceiling: at least 12,000 feet AGL
Clouds: scattered clouds at 2000 feet AGL
Weather: no significant weather observed at this time

METAR text: SPJL 172000Z 20004KT 9999 SCT020 16/M03 Q1035 RMK PP000
Conditions at: SPJL (JULIACA , PE) observed 2000 UTC 17 June 2019
Temperature: 16.0°C (61°F)
Dewpoint: -3.0°C (27°F) [RH = 27%]
Pressure (altimeter): 30.56 inches Hg (1035.0 mb)
Winds: from the SSW (200 degrees) at 5 MPH (4 knots; 2.1 m/s)
Visibility: 6 or more miles (10+ km)
Ceiling: at least 12,000 feet AGL
Clouds: scattered clouds at 2000 feet AGL
Weather: no significant weather observed at this time

METAR text: SPJL 171900Z 27004KT 9999 SCT025 15/M03 Q1036 RMK PP000
Conditions at: SPJL (JULIACA , PE) observed 1900 UTC 17 June 2019
Temperature: 15.0°C (59°F)
Dewpoint: -3.0°C (27°F) [RH = 29%]
Pressure (altimeter): 30.59 inches Hg (1036.0 mb)
Winds: from the W (270 degrees) at 5 MPH (4 knots; 2.1 m/s)
Visibility: 6 or more miles (10+ km)
Ceiling: at least 12,000 feet AGL
Clouds: scattered clouds at 2500 feet AGL
Weather: no significant weather observed at this time

METAR text: SPJL 171800Z VRB01KT 9999 BKN020 16/M00 Q1037 RMK PP000
Conditions at: SPJL (JULIACA , PE) observed 1800 UTC 17 June 2019
Temperature: 16.0°C (61°F)
Dewpoint: 0.0°C (32°F) [RH = 34%]
Pressure (altimeter): 30.62 inches Hg (1037.0 mb)
Winds: variable direction winds at 1 MPH (1 knots; 0.5 m/s)
Visibility: 6 or more miles (10+ km)
Ceiling: 2000 feet AGL
Clouds: broken clouds at 2000 feet AGL
Weather: no significant weather observed at this time

METAR text: SPJL 171700Z VRB03KT 9999 BKN020 15/M02 Q1038 RMK PP000
Conditions at: SPJL (JULIACA , PE) observed 1700 UTC 17 June 2019
Temperature: 15.0°C (59°F)
Dewpoint: -2.0°C (28°F) [RH = 31%]
Pressure (altimeter): 30.65 inches Hg (1038.0 mb)
Winds: variable direction winds at 3 MPH (3 knots; 1.5 m/s)
Visibility: 6 or more miles (10+ km)
Ceiling: 2000 feet AGL
Clouds: broken clouds at 2000 feet AGL
Weather: no significant weather observed at this time

METAR text: SPJL 171600Z 29003KT 9999 SCT020 12/01 Q1040 RMK BKN200 PP000
Conditions at: SPJL (JULIACA , PE) observed 1600 UTC 17 June 2019
Temperature: 12.0°C (54°F)
Dewpoint: 1.0°C (34°F) [RH = 47%]
Pressure (altimeter): 30.71 inches Hg (1040.0 mb)
Winds: from the WNW (290 degrees) at 3 MPH (3 knots; 1.5 m/s)
Visibility: 6 or more miles (10+ km)
Ceiling: at least 12,000 feet AGL
Clouds: scattered clouds at 2000 feet AGL
Weather: no significant weather observed at this time

METAR text: SPJL 171500Z 26001KT 9999 FEW012 10/01 Q1040 RMK BKN200 PP000
Conditions at: SPJL (JULIACA , PE) observed 1500 UTC 17 June 2019
Temperature: 10.0°C (50°F)
Dewpoint: 1.0°C (34°F) [RH = 53%]
Pressure (altimeter): 30.71 inches Hg (1040.0 mb)
Winds: from the W (260 degrees) at 1 MPH (1 knots; 0.5 m/s)
Visibility: 6 or more miles (10+ km)
Ceiling: at least 12,000 feet AGL
Clouds: few clouds at 1200 feet AGL
Weather: no significant weather observed at this time

METAR text: SPJL 171400Z VRB01KT 9999 FEW012 09/01 Q1041 RMK BKN200 PP000
Conditions at: SPJL (JULIACA , PE) observed 1400 UTC 17 June 2019
Temperature: 9.0°C (48°F)
Dewpoint: 1.0°C (34°F) [RH = 57%]
Pressure (altimeter): 30.74 inches Hg (1041.0 mb)
Winds: variable direction winds at 1 MPH (1 knots; 0.5 m/s)
Visibility: 6 or more miles (10+ km)
Ceiling: at least 12,000 feet AGL
Clouds: few clouds at 1200 feet AGL
Weather: no significant weather observed at this time

METAR text: SPJL 171300Z 27004KT 9999 SCT015 05/02 Q1040 RMK BKN200 PP000
Conditions at: SPJL (JULIACA , PE) observed 1300 UTC 17 June 2019
Temperature: 5.0°C (41°F)
Dewpoint: 2.0°C (36°F) [RH = 81%]
Pressure (altimeter): 30.71 inches Hg (1040.0 mb)
Winds: from the W (270 degrees) at 5 MPH (4 knots; 2.1 m/s)
Visibility: 6 or more miles (10+ km)
Ceiling: at least 12,000 feet AGL
Clouds: scattered clouds at 1500 feet AGL
Weather: no significant weather observed at this time

METAR text: SPJL 171200Z 05002KT 9999 SCT015 03/01 Q1039 RMK TN2.1 PP000
Conditions at: SPJL (JULIACA , PE) observed 1200 UTC 17 June 2019
Temperature: 3.0°C (37°F)
Dewpoint: 1.0°C (34°F) [RH = 87%]
Pressure (altimeter): 30.68 inches Hg (1039.0 mb)
Winds: from the NE (50 degrees) at 2 MPH (2 knots; 1.0 m/s)
Visibility: 6 or more miles (10+ km)
Ceiling: at least 12,000 feet AGL
Clouds: scattered clouds at 1500 feet AGL
Weather: no significant weather observed at this time

METAR text: SPJL 171100Z 31001KT 9999 SCT015 02/01 Q1039 RMK RA EN LA NOCHE PP002
Conditions at: SPJL (JULIACA , PE) observed 1100 UTC 17 June 2019
Temperature: 2.0°C (36°F)
Dewpoint: 1.0°C (34°F) [RH = 93%]
Pressure (altimeter): 30.68 inches Hg (1039.0 mb)
Winds: from the NW (310 degrees) at 1 MPH (1 knots; 0.5 m/s)
Visibility: 6 or more miles (10+ km)
Ceiling: at least 12,000 feet AGL
Clouds: scattered clouds at 1500 feet AGL
Weather: no significant weather observed at this time

Forecast for: COR
Text: TAF COR SPJL 181742Z 1818/1918 35006KT CAVOK TX17/1819Z TNM03/1911Z
Forecast period: 1800 to 2300 UTC 18 June 2019
Forecast type: FROM: standard forecast or significant change
Winds: from the N (350 degrees) at 7 MPH (6 knots; 3.1 m/s)
Visibility: 6 or more miles 10+ km)
Ceiling: unknown
Clouds: missing
Weather: no significant weather forecast for this period
Text: FM182300 VRB03KT 9999 SCT015
Forecast period: 2300 UTC 18 June 2019 to 1800 UTC 19 June 2019
Forecast type: FROM: standard forecast or significant change
Winds: variable direction winds at 3 MPH (3 knots; 1.5 m/s)
Visibility: 6 or more miles 10+ km)
Ceiling: at least 12,000 feet AGL
Clouds: scattered clouds at 1500 feet AGL
Weather: no significant weather forecast for this period